createdAt,value
2022-09-13T00:02:04.777Z,15.60
2022-09-13T00:04:52.923Z,15.60
2022-09-13T00:07:41.077Z,15.60
2022-09-13T00:10:29.584Z,15.60
2022-09-13T00:13:19.758Z,15.60
2022-09-13T00:16:13.190Z,15.50
2022-09-13T00:19:01.830Z,15.50
2022-09-13T00:21:50.000Z,15.40
2022-09-13T00:24:38.335Z,15.40
2022-09-13T00:27:26.475Z,15.30
2022-09-13T00:30:16.151Z,15.40
2022-09-13T00:33:04.700Z,15.30
2022-09-13T00:35:52.972Z,15.30
2022-09-13T00:38:41.555Z,15.30
2022-09-13T00:41:30.138Z,15.30
2022-09-13T00:44:57.616Z,15.30
2022-09-13T00:47:52.379Z,15.30
2022-09-13T00:50:44.080Z,15.30
2022-09-13T00:53:34.808Z,15.30
2022-09-13T00:56:26.564Z,15.30
2022-09-13T00:59:22.423Z,15.30
2022-09-13T01:02:11.302Z,15.30
2022-09-13T01:05:01.246Z,15.30
2022-09-13T01:07:49.641Z,15.20
2022-09-13T01:10:40.299Z,15.20
2022-09-13T01:13:32.990Z,15.10
2022-09-13T01:16:21.223Z,15.10
2022-09-13T01:19:09.412Z,15.00
2022-09-13T01:22:24.950Z,15.00
2022-09-13T01:25:41.040Z,14.90
2022-09-13T01:28:56.713Z,14.90
2022-09-13T01:31:55.166Z,14.80
2022-09-13T01:34:55.481Z,14.70
2022-09-13T01:37:52.722Z,14.70
2022-09-13T01:40:54.497Z,14.80
2022-09-13T01:43:53.732Z,14.70
2022-09-13T01:46:52.428Z,14.70
2022-09-13T01:49:47.473Z,14.70
2022-09-13T01:52:46.560Z,14.70
2022-09-13T01:55:41.746Z,14.60
2022-09-13T01:58:38.028Z,14.60
2022-09-13T02:01:31.234Z,14.60
2022-09-13T02:04:24.648Z,14.60
2022-09-13T02:07:18.426Z,14.50
2022-09-13T02:10:10.727Z,14.50
2022-09-13T02:13:00.943Z,14.40
2022-09-13T02:15:53.204Z,14.40
2022-09-13T02:18:45.025Z,14.40
2022-09-13T02:21:39.714Z,14.30
2022-09-13T02:24:31.503Z,14.40
2022-09-13T02:27:25.292Z,14.40
2022-09-13T02:30:15.436Z,14.40
2022-09-13T02:33:08.662Z,14.40
2022-09-13T02:36:01.660Z,14.40
2022-09-13T02:38:55.960Z,14.40
2022-09-13T02:41:50.182Z,14.40
2022-09-13T02:44:41.150Z,14.40
2022-09-13T02:47:36.064Z,14.40
2022-09-13T02:50:36.353Z,14.40
2022-09-13T02:53:32.417Z,14.40
2022-09-13T02:56:28.168Z,14.40
2022-09-13T02:59:18.122Z,14.40
2022-09-13T03:02:09.425Z,14.50
2022-09-13T03:04:57.671Z,14.50
2022-09-13T03:07:45.951Z,14.60
2022-09-13T03:10:48.831Z,14.70
2022-09-13T03:13:55.986Z,14.70
2022-09-13T03:17:01.792Z,14.80
2022-09-13T03:20:04.260Z,14.80
2022-09-13T03:23:28.914Z,14.70
2022-09-13T03:26:32.690Z,14.80
2022-09-13T03:29:31.444Z,14.80
2022-09-13T03:32:30.478Z,14.70
2022-09-13T03:35:27.372Z,14.80
2022-09-13T03:38:20.853Z,14.80
2022-09-13T03:41:13.506Z,14.70
2022-09-13T03:44:04.712Z,14.70
2022-09-13T03:46:57.573Z,14.80
2022-09-13T03:49:46.456Z,14.80
2022-09-13T03:52:35.061Z,14.70
2022-09-13T03:55:23.758Z,14.70
2022-09-13T03:58:13.727Z,14.80
2022-09-13T04:01:01.941Z,14.80
2022-09-13T04:03:56.322Z,14.80
2022-09-13T04:06:44.885Z,14.90
2022-09-13T04:09:33.257Z,15.00
2022-09-13T04:12:21.429Z,15.00
2022-09-13T04:15:11.100Z,15.10
2022-09-13T04:17:59.657Z,15.10
2022-09-13T04:20:56.089Z,15.20
2022-09-13T04:23:44.424Z,15.20
2022-09-13T04:26:32.610Z,15.30
2022-09-13T04:29:21.382Z,15.30
2022-09-13T04:32:10.516Z,15.40
2022-09-13T04:34:58.640Z,15.40
2022-09-13T04:37:48.269Z,15.50
2022-09-13T04:40:37.380Z,15.50
2022-09-13T04:43:25.863Z,15.50
2022-09-13T04:46:14.075Z,15.50
2022-09-13T04:49:02.269Z,15.50
2022-09-13T04:51:50.737Z,15.40
2022-09-13T04:54:40.237Z,15.40
2022-09-13T04:57:28.589Z,15.40
2022-09-13T05:00:17.051Z,15.30
2022-09-13T05:03:05.365Z,15.30
2022-09-13T05:05:53.500Z,15.30
2022-09-13T05:08:42.013Z,15.30
2022-09-13T05:11:31.535Z,15.30
2022-09-13T05:14:19.701Z,15.20
2022-09-13T05:17:07.872Z,15.20
2022-09-13T05:19:56.347Z,15.10
2022-09-13T05:22:44.500Z,15.20
2022-09-13T05:25:32.656Z,15.20
2022-09-13T05:28:22.236Z,15.20
2022-09-13T05:31:15.833Z,15.20
2022-09-13T05:34:07.946Z,15.20
2022-09-13T05:36:56.095Z,15.20
2022-09-13T05:40:07.841Z,15.20
2022-09-13T05:42:54.116Z,15.20
2022-09-13T05:45:43.638Z,15.20
2022-09-13T05:48:32.420Z,15.30
2022-09-13T05:51:21.941Z,15.30
2022-09-13T05:54:13.183Z,15.40
2022-09-13T05:57:01.460Z,15.40
2022-09-13T05:59:49.609Z,15.40
2022-09-13T06:02:39.188Z,15.40
2022-09-13T06:05:31.758Z,15.40
2022-09-13T06:08:20.197Z,15.40
2022-09-13T06:11:10.015Z,15.50
2022-09-13T06:13:58.157Z,15.50
2022-09-13T06:16:46.277Z,15.50
2022-09-13T06:19:35.738Z,15.60
2022-09-13T06:22:23.939Z,15.60
2022-09-13T06:25:12.083Z,15.60
2022-09-13T06:28:00.245Z,15.70
2022-09-13T06:30:48.394Z,15.70
2022-09-13T06:33:38.643Z,15.80
2022-09-13T06:36:28.382Z,15.80
2022-09-13T06:39:16.569Z,15.90
2022-09-13T06:42:05.163Z,15.90
2022-09-13T06:44:53.308Z,16.00
2022-09-13T06:47:41.512Z,16.00
2022-09-13T06:50:29.721Z,16.10
2022-09-13T06:53:19.232Z,16.10
2022-09-13T06:56:09.390Z,16.10
2022-09-13T06:58:59.830Z,16.20
2022-09-13T07:01:48.089Z,16.30
2022-09-13T07:04:36.284Z,16.30
2022-09-13T07:07:24.594Z,16.30
2022-09-13T07:10:14.378Z,16.40
2022-09-13T07:13:02.557Z,16.50
2022-09-13T07:15:50.850Z,16.50
2022-09-13T07:18:39.881Z,16.60
2022-09-13T07:21:29.700Z,16.60
2022-09-13T07:24:18.787Z,16.70
2022-09-13T07:27:08.481Z,16.70
2022-09-13T07:29:57.851Z,16.80
2022-09-13T07:32:46.029Z,16.90
2022-09-13T07:35:34.543Z,17.10
2022-09-13T07:38:22.672Z,17.10
2022-09-13T07:41:13.508Z,17.10
2022-09-13T07:44:03.216Z,17.20
2022-09-13T07:46:51.318Z,17.20
2022-09-13T07:49:39.475Z,17.30
2022-09-13T07:52:30.187Z,17.30
2022-09-13T07:55:18.338Z,17.40
2022-09-13T07:58:06.450Z,17.40
2022-09-13T08:00:56.050Z,17.40
2022-09-13T08:03:44.959Z,17.40
2022-09-13T08:06:35.315Z,17.40
2022-09-13T08:09:24.144Z,17.50
2022-09-13T08:12:12.299Z,17.60
2022-09-13T08:15:00.430Z,17.70
2022-09-13T08:17:49.876Z,17.80
2022-09-13T08:20:38.447Z,17.80
2022-09-13T08:23:26.992Z,17.90
2022-09-13T08:26:15.753Z,18.00
2022-09-13T08:29:07.010Z,18.10
2022-09-13T08:31:55.130Z,18.30
2022-09-13T08:34:44.620Z,18.40
2022-09-13T08:37:34.323Z,18.40
2022-09-13T08:40:23.914Z,18.60
2022-09-13T08:43:19.865Z,18.60
2022-09-13T08:46:16.447Z,18.70
2022-09-13T08:49:10.974Z,18.80
2022-09-13T08:52:17.938Z,18.90
2022-09-13T08:55:26.924Z,19.00
2022-09-13T08:58:34.148Z,19.10
2022-09-13T09:01:33.529Z,19.20
2022-09-13T09:04:35.778Z,19.40
2022-09-13T09:07:29.074Z,19.50
2022-09-13T09:10:20.463Z,19.60
2022-09-13T09:13:14.537Z,19.70
2022-09-13T09:16:07.100Z,19.80
2022-09-13T09:18:57.841Z,19.80
2022-09-13T09:21:47.846Z,19.90
2022-09-13T09:24:39.943Z,20.10
2022-09-13T09:27:31.301Z,20.10
2022-09-13T09:30:19.664Z,20.10
2022-09-13T09:33:22.851Z,20.20
2022-09-13T09:36:23.804Z,20.20
2022-09-13T09:39:14.143Z,20.30
2022-09-13T09:42:04.476Z,20.40
2022-09-13T09:44:54.616Z,20.40
2022-09-13T09:47:47.377Z,20.40
2022-09-13T09:50:40.600Z,20.40
2022-09-13T09:53:36.829Z,20.40
2022-09-13T09:56:27.500Z,20.40
2022-09-13T09:59:28.646Z,20.30
2022-09-13T10:02:20.493Z,20.30
2022-09-13T10:05:09.233Z,20.20
2022-09-13T10:08:01.135Z,20.20
2022-09-13T10:10:55.758Z,20.10
2022-09-13T10:13:59.635Z,20.10
2022-09-13T10:16:50.208Z,20.20
2022-09-13T10:19:39.469Z,20.20
2022-09-13T10:22:28.175Z,20.30
2022-09-13T10:25:20.584Z,20.50
2022-09-13T10:28:15.145Z,20.60
2022-09-13T10:31:09.193Z,20.60
2022-09-13T10:34:03.076Z,20.80
2022-09-13T10:36:57.242Z,20.80
2022-09-13T10:39:56.892Z,20.90
2022-09-13T10:42:53.895Z,21.00
2022-09-13T10:45:42.898Z,21.00
2022-09-13T10:48:43.114Z,21.00
2022-09-13T10:51:37.104Z,21.00
2022-09-13T10:54:25.650Z,21.00
2022-09-13T10:57:33.446Z,21.10
2022-09-13T11:00:24.644Z,21.00
2022-09-13T11:03:30.571Z,21.00
2022-09-13T11:06:30.140Z,20.90
2022-09-13T11:09:25.566Z,20.90
2022-09-13T11:12:20.388Z,20.90
2022-09-13T11:15:21.945Z,20.90
2022-09-13T11:18:48.919Z,21.00
2022-09-13T11:21:51.601Z,21.00
2022-09-13T11:24:54.537Z,21.10
2022-09-13T11:27:52.054Z,21.20
2022-09-13T11:30:48.780Z,21.30
2022-09-13T11:33:52.145Z,21.30
2022-09-13T11:36:55.527Z,21.40
2022-09-13T11:39:52.626Z,21.40
2022-09-13T11:42:50.775Z,21.40
2022-09-13T11:45:45.297Z,21.50
2022-09-13T11:48:55.769Z,21.50
2022-09-13T11:51:56.190Z,21.60
2022-09-13T11:55:02.052Z,21.60
2022-09-13T11:57:54.109Z,21.70
2022-09-13T12:00:45.376Z,21.80
2022-09-13T12:03:41.694Z,21.90
2022-09-13T12:06:33.363Z,21.90
2022-09-13T12:09:26.740Z,22.00
2022-09-13T12:12:16.508Z,22.00
2022-09-13T12:15:14.730Z,21.90
2022-09-13T12:18:07.904Z,22.00
2022-09-13T12:20:59.379Z,22.00
2022-09-13T12:23:53.552Z,22.00
2022-09-13T12:26:49.307Z,22.00
2022-09-13T12:29:45.247Z,22.10
2022-09-13T12:32:33.816Z,22.30
2022-09-13T12:35:27.969Z,22.40
2022-09-13T12:38:40.001Z,22.50
2022-09-13T12:41:37.355Z,22.60
2022-09-13T12:44:47.928Z,22.60
2022-09-13T12:47:58.969Z,22.50
2022-09-13T12:50:59.001Z,22.60
2022-09-13T12:54:03.687Z,22.70
2022-09-13T12:57:03.453Z,22.80
2022-09-13T13:00:05.233Z,22.70
2022-09-13T13:03:02.406Z,22.70
2022-09-13T13:05:54.776Z,22.60
2022-09-13T13:08:51.837Z,22.50
2022-09-13T13:11:46.366Z,22.40
2022-09-13T13:14:53.281Z,22.30
2022-09-13T13:17:47.628Z,22.30
2022-09-13T13:21:22.473Z,22.30
2022-09-13T13:24:47.940Z,22.30
2022-09-13T13:27:47.644Z,22.20
2022-09-13T13:30:52.371Z,22.20
2022-09-13T13:33:51.643Z,22.20
2022-09-13T13:36:49.078Z,22.20
2022-09-13T13:39:40.861Z,22.50
2022-09-13T13:42:31.645Z,22.60
2022-09-13T13:45:24.102Z,22.60
2022-09-13T13:48:16.203Z,22.60
2022-09-13T13:51:16.416Z,22.60
2022-09-13T13:54:30.076Z,22.50
2022-09-13T13:57:25.015Z,22.50
2022-09-13T14:00:17.673Z,22.60
2022-09-13T14:03:17.928Z,22.70
2022-09-13T14:06:16.425Z,22.70
2022-09-13T14:09:13.877Z,22.60
2022-09-13T14:12:17.666Z,22.60
2022-09-13T14:15:23.349Z,22.60
2022-09-13T14:18:30.852Z,22.60
2022-09-13T14:21:23.272Z,22.60
2022-09-13T14:24:19.878Z,22.50
2022-09-13T14:27:14.316Z,22.40
2022-09-13T14:30:05.883Z,22.40
2022-09-13T14:32:56.545Z,22.40
2022-09-13T14:35:44.588Z,22.40
2022-09-13T14:38:35.650Z,22.20
2022-09-13T14:41:35.301Z,22.10
2022-09-13T14:44:28.926Z,22.30
2022-09-13T14:47:22.579Z,22.40
2022-09-13T14:50:16.391Z,22.60
2022-09-13T14:53:07.866Z,22.80
2022-09-13T14:56:00.434Z,22.90
2022-09-13T14:58:53.038Z,23.10
2022-09-13T15:01:41.237Z,23.10
2022-09-13T15:04:29.471Z,23.10
2022-09-13T15:07:24.880Z,23.10
2022-09-13T15:10:23.963Z,23.20
2022-09-13T15:13:12.302Z,23.40
2022-09-13T15:16:01.951Z,23.40
2022-09-13T15:18:50.190Z,23.60
2022-09-13T15:21:38.377Z,23.70
2022-09-13T15:24:31.469Z,23.70
2022-09-13T15:27:28.173Z,23.50
2022-09-13T15:30:25.640Z,23.50
2022-09-13T15:33:29.723Z,23.40
2022-09-13T15:36:29.849Z,23.50
2022-09-13T15:39:20.163Z,23.70
2022-09-13T15:42:08.589Z,23.80
2022-09-13T15:44:56.959Z,23.90
2022-09-13T15:47:47.730Z,23.70
2022-09-13T15:50:38.679Z,23.60
2022-09-13T15:53:26.868Z,23.70
2022-09-13T15:56:17.061Z,23.70
2022-09-13T15:59:05.494Z,23.70
2022-09-13T16:01:54.118Z,23.80
2022-09-13T16:04:42.320Z,23.80
2022-09-13T16:07:31.913Z,23.50
2022-09-13T16:10:22.260Z,23.30
2022-09-13T16:13:10.491Z,23.20
2022-09-13T16:15:58.987Z,23.00
2022-09-13T16:18:47.219Z,22.90
2022-09-13T16:21:35.402Z,22.90
2022-09-13T16:24:24.857Z,22.70
2022-09-13T16:27:14.248Z,22.60
2022-09-13T16:30:03.460Z,22.50
2022-09-13T16:32:51.881Z,22.30
2022-09-13T16:35:40.016Z,22.20
2022-09-13T16:38:28.149Z,22.10
2022-09-13T16:41:17.637Z,22.10
2022-09-13T16:44:06.252Z,22.10
2022-09-13T16:46:54.503Z,22.20
2022-09-13T16:49:42.798Z,22.10
2022-09-13T16:52:31.049Z,21.90
2022-09-13T16:55:19.273Z,21.80
2022-09-13T16:58:08.758Z,21.70
2022-09-13T17:00:57.147Z,21.50
2022-09-13T17:03:45.648Z,21.50
2022-09-13T17:06:33.850Z,21.30
2022-09-13T17:09:23.786Z,21.20
2022-09-13T17:12:13.896Z,21.10
2022-09-13T17:15:03.457Z,21.00
2022-09-13T17:17:51.611Z,21.00
2022-09-13T17:20:44.432Z,20.90
2022-09-13T17:23:32.653Z,20.80
2022-09-13T17:26:20.985Z,20.80
2022-09-13T17:29:09.390Z,20.70
2022-09-13T17:31:59.029Z,20.60
2022-09-13T17:34:47.277Z,20.60
2022-09-13T17:37:35.445Z,20.50
2022-09-13T17:40:23.599Z,20.40
2022-09-13T17:43:11.818Z,20.40
2022-09-13T17:46:05.558Z,20.30
2022-09-13T17:48:56.137Z,20.20
2022-09-13T17:51:44.285Z,20.20
2022-09-13T17:54:32.423Z,20.10
2022-09-13T17:57:20.832Z,20.00
2022-09-13T18:00:10.725Z,19.90
2022-09-13T18:02:58.971Z,19.90
2022-09-13T18:05:48.581Z,19.80
2022-09-13T18:08:38.632Z,19.90
2022-09-13T18:11:26.872Z,19.80
2022-09-13T18:14:16.683Z,19.70
2022-09-13T18:17:10.560Z,19.70
2022-09-13T18:19:58.750Z,19.70
2022-09-13T18:22:48.226Z,19.60
2022-09-13T18:25:36.382Z,19.60
2022-09-13T18:28:24.671Z,19.50
2022-09-13T18:31:15.374Z,19.40
2022-09-13T18:34:06.086Z,19.30
2022-09-13T18:36:54.229Z,19.30
2022-09-13T18:39:43.795Z,19.20
2022-09-13T18:42:33.475Z,19.10
2022-09-13T18:45:21.755Z,19.20
2022-09-13T18:48:09.905Z,19.10
2022-09-13T18:50:58.483Z,19.10
2022-09-13T18:53:47.584Z,19.00
2022-09-13T18:56:37.246Z,19.00
2022-09-13T18:59:25.444Z,18.90
2022-09-13T19:02:13.739Z,18.90
2022-09-13T19:05:06.427Z,18.80
2022-09-13T19:07:56.287Z,18.80
2022-09-13T19:10:44.488Z,18.80
2022-09-13T19:13:34.401Z,18.70
2022-09-13T19:16:22.708Z,18.70
2022-09-13T19:19:11.091Z,18.60
2022-09-13T19:21:59.338Z,18.60
2022-09-13T19:24:51.740Z,18.60
2022-09-13T19:27:39.926Z,18.50
2022-09-13T19:30:29.549Z,18.50
2022-09-13T19:33:17.751Z,18.50
2022-09-13T19:36:08.457Z,18.50
2022-09-13T19:38:59.294Z,18.40
2022-09-13T19:41:47.663Z,18.40
2022-09-13T19:44:35.824Z,18.40
2022-09-13T19:50:33.692Z,18.30
2022-09-13T19:53:31.911Z,18.30
2022-09-13T19:56:32.146Z,18.30
2022-09-13T19:59:20.813Z,18.20
2022-09-13T20:02:11.015Z,18.10
2022-09-13T20:05:00.587Z,18.10
2022-09-13T20:07:48.781Z,18.00
2022-09-13T20:10:39.052Z,18.00
2022-09-13T20:13:27.246Z,17.90
2022-09-13T20:16:18.483Z,17.80
2022-09-13T20:19:29.741Z,17.80
2022-09-13T20:22:17.508Z,17.80
2022-09-13T20:25:06.565Z,17.70
2022-09-13T20:27:54.715Z,17.60
2022-09-13T20:30:43.337Z,17.60
2022-09-13T20:33:31.884Z,17.60
2022-09-13T20:36:20.093Z,17.60
2022-09-13T20:39:10.199Z,17.60
2022-09-13T20:41:59.049Z,17.60
2022-09-13T20:44:47.185Z,17.70
2022-09-13T20:47:36.258Z,17.70
2022-09-13T20:50:24.393Z,17.70
2022-09-13T20:53:15.186Z,17.70
2022-09-13T20:56:05.373Z,17.70
2022-09-13T20:58:57.387Z,17.70
2022-09-13T21:01:46.054Z,17.60
2022-09-13T21:04:34.348Z,17.60
2022-09-13T21:07:40.329Z,17.60
2022-09-13T21:10:28.975Z,17.60
2022-09-13T21:13:18.432Z,17.50
2022-09-13T21:16:08.063Z,17.50
2022-09-13T21:18:57.222Z,17.50
2022-09-13T21:21:45.547Z,17.50
2022-09-13T21:24:33.737Z,17.40
2022-09-13T21:27:22.020Z,17.40
2022-09-13T21:30:12.250Z,17.30
2022-09-13T21:33:00.381Z,17.30
2022-09-13T21:35:48.558Z,17.30
2022-09-13T21:38:37.377Z,17.20
2022-09-13T21:41:27.085Z,17.10
2022-09-13T21:44:15.253Z,17.10
2022-09-13T21:47:04.964Z,17.10
2022-09-13T21:49:53.284Z,17.00
2022-09-13T21:52:41.997Z,17.00
2022-09-13T21:55:31.378Z,16.90
2022-09-13T21:58:19.553Z,16.90
2022-09-13T22:01:09.906Z,16.90
2022-09-13T22:04:00.596Z,16.80
2022-09-13T22:06:51.610Z,16.80
2022-09-13T22:09:39.739Z,16.70
2022-09-13T22:12:27.906Z,16.70
2022-09-13T22:15:17.736Z,16.60
2022-09-13T22:18:05.917Z,16.60
2022-09-13T22:20:55.394Z,16.50
2022-09-13T22:23:44.028Z,16.50
2022-09-13T22:26:35.995Z,16.50
2022-09-13T22:29:24.657Z,16.40
2022-09-13T22:32:12.877Z,16.40
2022-09-13T22:35:01.647Z,16.30
2022-09-13T22:37:51.152Z,16.30
2022-09-13T22:40:39.299Z,16.20
2022-09-13T22:43:27.749Z,16.10
2022-09-13T22:46:18.117Z,16.10
2022-09-13T22:49:07.187Z,16.10
2022-09-13T22:51:55.384Z,16.00
2022-09-13T22:54:46.019Z,16.00
2022-09-13T22:57:34.201Z,16.00
2022-09-13T23:00:23.312Z,15.90
2022-09-13T23:03:12.108Z,15.80
2022-09-13T23:06:00.278Z,15.80
2022-09-13T23:08:49.776Z,15.70
2022-09-13T23:11:40.929Z,15.70
2022-09-13T23:14:29.105Z,15.70
2022-09-13T23:17:17.542Z,15.70
2022-09-13T23:20:06.801Z,15.70
2022-09-13T23:22:54.928Z,15.70
2022-09-13T23:25:43.043Z,15.70
2022-09-13T23:28:32.699Z,15.50
2022-09-13T23:31:22.558Z,15.60
2022-09-13T23:34:12.532Z,15.50
2022-09-13T23:37:00.700Z,15.50
2022-09-13T23:39:49.141Z,15.40
2022-09-13T23:42:37.323Z,15.30
2022-09-13T23:45:26.909Z,15.30
2022-09-13T23:48:15.151Z,15.30
2022-09-13T23:51:06.922Z,15.20
2022-09-13T23:53:57.448Z,15.20
2022-09-13T23:56:45.691Z,15.20
2022-09-13T23:59:33.905Z,15.20
